createdAt,value
2023-03-10T20:03:56.886Z,97668.97
2023-03-10T20:06:24.721Z,97668.97
2023-03-10T20:08:52.100Z,97667.31
2023-03-10T20:11:19.823Z,97672.84
2023-03-10T20:13:47.510Z,97686.16
2023-03-10T20:16:15.390Z,97680.91
2023-03-10T20:18:42.753Z,97680.16
2023-03-10T20:21:10.761Z,97686.88
2023-03-10T20:23:38.355Z,97675.16
2023-03-10T20:26:09.603Z,97660.41
2023-03-10T20:28:37.381Z,97650.50
2023-03-10T20:31:04.771Z,97634.53
2023-03-10T20:33:32.122Z,97598.03
2023-03-10T20:35:59.838Z,97589.38
2023-03-10T20:38:27.290Z,97576.87
2023-03-10T20:40:54.610Z,97548.88
2023-03-10T20:43:22.191Z,97554.63
2023-03-10T20:45:51.496Z,97544.97
2023-03-10T20:48:18.975Z,97556.00
2023-03-10T20:50:46.557Z,97566.00
2023-03-10T20:53:13.864Z,97584.06
2023-03-10T20:55:41.244Z,97616.66
2023-03-10T20:58:08.870Z,97617.06
2023-03-10T21:00:36.245Z,97613.88
2023-03-10T21:03:03.590Z,97626.31
2023-03-10T21:05:31.161Z,97629.09
2023-03-10T21:07:58.512Z,97626.59
2023-03-10T21:10:26.608Z,97621.16
2023-03-10T21:12:54.238Z,97621.16
2023-03-10T21:15:21.579Z,97614.09
2023-03-10T21:17:48.986Z,97627.34
2023-03-10T21:20:18.909Z,97618.50
2023-03-10T21:22:46.449Z,97625.53
2023-03-10T21:25:16.491Z,97615.31
2023-03-10T21:27:46.763Z,97617.94
2023-03-10T21:30:14.321Z,97621.78
2023-03-10T21:32:41.672Z,97627.53
2023-03-10T21:35:12.627Z,97621.94
2023-03-10T21:37:46.707Z,97619.75
2023-03-10T21:40:15.161Z,97624.28
2023-03-10T21:42:42.536Z,97628.97
2023-03-10T21:45:12.603Z,97630.84
2023-03-10T21:47:40.225Z,97639.44
2023-03-10T21:50:08.624Z,97629.63
2023-03-10T21:52:36.200Z,97621.00
2023-03-10T21:55:03.914Z,97638.72
2023-03-10T21:57:31.239Z,97649.56
2023-03-10T21:59:58.579Z,97646.72
2023-03-10T22:02:28.154Z,97651.91
2023-03-10T22:04:55.953Z,97645.72
2023-03-10T22:07:23.349Z,97648.78
2023-03-10T22:09:50.785Z,97653.94
2023-03-10T22:12:18.630Z,97653.47
2023-03-10T22:14:47.443Z,97647.44
2023-03-10T22:17:14.856Z,97641.66
2023-03-10T22:19:42.455Z,97646.31
2023-03-10T22:22:09.816Z,97646.06
2023-03-10T22:24:37.116Z,97647.72
2023-03-10T22:27:05.602Z,97650.09
2023-03-10T22:29:32.917Z,97644.78
2023-03-10T22:32:00.294Z,97643.75
2023-03-10T22:34:27.869Z,97628.81
2023-03-10T22:36:55.225Z,97635.38
2023-03-10T22:39:23.311Z,97629.41
2023-03-10T22:41:50.935Z,97614.31
2023-03-10T22:44:18.482Z,97619.84
2023-03-10T22:46:46.619Z,97617.56
2023-03-10T22:49:14.303Z,97622.31
2023-03-10T22:51:41.732Z,97614.44
2023-03-10T22:54:09.069Z,97626.72
2023-03-10T22:56:36.641Z,97638.16
2023-03-10T22:59:04.447Z,97641.94
2023-03-10T23:01:31.896Z,97651.69
2023-03-10T23:03:59.600Z,97652.34
2023-03-10T23:06:29.197Z,97651.66
2023-03-10T23:08:56.881Z,97650.50
2023-03-10T23:11:24.539Z,97654.91
2023-03-10T23:13:51.900Z,97650.50
2023-03-10T23:16:19.856Z,97645.41
2023-03-10T23:18:47.567Z,97646.72
2023-03-10T23:21:14.898Z,97653.09
2023-03-10T23:23:43.764Z,97655.13
2023-03-10T23:26:11.614Z,97669.63
2023-03-10T23:28:38.979Z,97676.94
2023-03-10T23:31:06.914Z,97685.16
2023-03-10T23:33:34.582Z,97676.84
2023-03-10T23:36:01.916Z,97675.38
2023-03-10T23:38:29.348Z,97679.25
2023-03-10T23:40:56.991Z,97681.50
2023-03-10T23:43:24.331Z,97673.25
2023-03-10T23:45:51.758Z,97681.66
2023-03-10T23:48:19.887Z,97686.66
2023-03-10T23:50:47.608Z,97681.56
2023-03-10T23:53:15.624Z,97689.00
2023-03-10T23:55:44.488Z,97679.91
2023-03-10T23:58:12.964Z,97671.50
